Time;durP1;ratioP1;P1;durP2;ratioP2;P2;SDS_P1;SDS_P2;PMS_P1;PMS_P2;Temp;Humidity;BMP_temperature;BMP_pressure;BME280_temperature;BME280_humidity;BME280_pressure;Samples;Min_cycle;Max_cycle;Signal;HPM_P1;HPM_P2
2022/11/18 00:01:37;;;;;;;2.10;0.52;;;8.60;38.80;;;;;;7355639;19;20013;-69
2022/11/18 00:04:07;;;;;;;2.95;0.80;;;8.60;38.90;;;;;;7361000;19;20018;-69
2022/11/18 00:06:37;;;;;;;2.25;0.60;;;8.60;40.00;;;;;;7362885;19;20406;-70
2022/11/18 00:09:07;;;;;;;1.33;0.55;;;8.60;39.80;;;;;;7367280;19;20078;-70
2022/11/18 00:14:22;;;;;;;;;;;8.60;38.70;;;;;;7363510;19;19999;-70
2022/11/18 00:16:58;;;;;;;0.82;0.45;;;8.60;40.20;;;;;;7360088;19;20367;-69
2022/11/18 00:19:29;;;;;;;1.02;0.50;;;8.60;39.70;;;;;;7359392;19;20011;-70
2022/11/18 00:22:00;;;;;;;2.20;0.47;;;8.50;40.40;;;;;;7355479;19;20077;-70
2022/11/18 00:24:30;;;;;;;0.60;0.40;;;8.60;41.00;;;;;;7363103;19;20017;-70
2022/11/18 00:27:02;;;;;;;0.80;0.45;;;8.60;41.00;;;;;;7382586;19;20042;-70
2022/11/18 00:29:32;;;;;;;1.05;0.60;;;8.60;41.00;;;;;;7359351;19;20763;-70
2022/11/18 00:32:02;;;;;;;1.88;0.80;;;8.60;40.20;;;;;;7353824;19;20007;-70
2022/11/18 00:34:32;;;;;;;2.55;0.55;;;8.60;40.70;;;;;;7369918;19;20463;-70
2022/11/18 00:37:01;;;;;;;1.20;0.50;;;8.60;40.00;;;;;;7369272;19;20442;-70
2022/11/18 00:39:31;;;;;;;2.08;0.60;;;8.60;39.80;;;;;;7367338;19;20649;-70
2022/11/18 00:44:46;;;;;;;;;;;8.60;39.10;;;;;;7368688;19;20018;-70
2022/11/18 00:47:16;;;;;;;1.15;0.55;;;8.60;39.70;;;;;;7366775;19;20302;-70
2022/11/18 00:49:45;;;;;;;0.82;0.55;;;8.50;40.80;;;;;;7367821;19;20033;-70
2022/11/18 00:52:15;;;;;;;1.55;0.45;;;8.50;40.90;;;;;;7363579;19;20003;-70
2022/11/18 00:54:45;;;;;;;2.53;0.75;;;8.50;41.30;;;;;;7367752;19;20018;-69
2022/11/18 00:57:17;;;;;;;0.93;0.40;;;8.50;42.20;;;;;;7367299;19;20707;-69
2022/11/18 00:59:47;;;;;;;1.40;0.60;;;8.50;43.20;;;;;;7389179;19;20021;-69
2022/11/18 01:02:17;;;;;;;1.83;0.60;;;8.50;44.20;;;;;;7362373;19;20006;-69
2022/11/18 01:04:47;;;;;;;1.63;0.60;;;8.40;44.20;;;;;;7369222;19;20461;-70
2022/11/18 01:07:17;;;;;;;1.73;0.45;;;8.40;45.20;;;;;;7366684;19;20010;-70
2022/11/18 01:09:46;;;;;;;1.85;0.60;;;8.40;45.60;;;;;;7365661;19;20011;-70
2022/11/18 01:15:01;;;;;;;3.17;0.80;;;8.40;46.50;;;;;;7389878;19;20482;-69
2022/11/18 01:17:32;;;;;;;1.35;0.50;;;8.40;47.00;;;;;;7364098;19;20014;-69
2022/11/18 01:20:02;;;;;;;1.50;0.57;;;8.40;47.10;;;;;;7365002;19;20011;-69
2022/11/18 01:22:31;;;;;;;2.33;0.73;;;8.40;47.10;;;;;;7363171;19;20006;-69
2022/11/18 01:25:01;;;;;;;1.63;0.90;;;8.40;47.60;;;;;;7365927;19;20841;-69
2022/11/18 01:27:34;;;;;;;1.58;1.05;;;8.40;47.90;;;;;;7365651;19;20098;-69
2022/11/18 01:30:04;;;;;;;1.25;0.82;;;8.40;48.90;;;;;;7385037;19;20015;-69
2022/11/18 01:32:33;;;;;;;3.55;1.20;;;8.30;48.70;;;;;;7361675;19;20006;-70
2022/11/18 01:35:03;;;;;;;4.38;1.05;;;8.40;49.10;;;;;;7366821;19;20006;-69
2022/11/18 01:37:33;;;;;;;1.20;0.90;;;8.40;49.20;;;;;;7366767;19;20010;-69
2022/11/18 01:40:06;;;;;;;2.90;1.10;;;8.40;49.10;;;;;;7363764;19;20030;-70
2022/11/18 01:42:38;;;;;;;1.10;0.70;;;8.40;50.30;;;;;;7362724;19;20018;-69
2022/11/18 01:45:22;;;;;;;1.73;0.93;;;8.40;50.40;;;;;;7365798;19;20007;-69
2022/11/18 01:47:58;;;;;;;1.73;1.15;;;8.40;51.20;;;;;;7386438;19;20022;-69
2022/11/18 01:50:29;;;;;;;1.40;0.73;;;8.40;51.20;;;;;;7360565;19;20003;-69
2022/11/18 01:53:03;;;;;;;6.47;1.00;;;8.40;51.80;;;;;;7363309;19;20010;-69
2022/11/18 01:55:36;;;;;;;1.80;0.70;;;8.40;51.80;;;;;;7366760;19;20046;-70
2022/11/18 01:58:14;;;;;;;2.88;0.80;;;8.40;51.90;;;;;;7365440;19;20021;-70
2022/11/18 02:00:44;;;;;;;3.20;1.15;;;8.40;51.80;;;;;;7363826;19;20010;-69
2022/11/18 02:03:14;;;;;;;2.42;0.90;;;8.30;51.10;;;;;;7362360;19;20014;-70
2022/11/18 02:05:47;;;;;;;4.18;1.30;;;8.30;51.20;;;;;;7389383;19;20451;-70
2022/11/18 02:08:19;;;;;;;2.10;0.80;;;8.40;51.90;;;;;;7362897;19;20003;-70
2022/11/18 02:10:49;;;;;;;2.25;0.90;;;8.40;52.00;;;;;;7361775;19;20003;-70
2022/11/18 02:13:21;;;;;;;3.05;0.90;;;8.40;51.80;;;;;;7361600;19;20014;-70
2022/11/18 02:16:02;;;;;;;2.25;1.02;;;8.30;51.50;;;;;;7366377;19;20015;-70
2022/11/18 02:18:43;;;;;;;2.15;0.90;;;8.30;51.40;;;;;;7365399;19;20013;-70
2022/11/18 02:21:23;;;;;;;2.28;0.88;;;8.30;52.00;;;;;;7362205;19;20010;-70
2022/11/18 02:24:14;;;;;;;1.88;0.75;;;8.30;51.60;;;;;;7387301;19;20003;-70
2022/11/18 02:27:14;;;;;;;1.02;0.55;;;8.30;51.00;;;;;;7364879;19;20034;-70
2022/11/18 02:29:55;;;;;;;1.70;0.75;;;8.30;51.30;;;;;;7362651;19;20010;-70
2022/11/18 02:32:28;;;;;;;2.15;0.52;;;8.30;51.10;;;;;;7359521;19;20030;-70
2022/11/18 02:35:04;;;;;;;2.83;0.50;;;8.30;51.30;;;;;;7364926;19;20026;-70
2022/11/18 02:37:38;;;;;;;2.83;0.60;;;8.30;51.20;;;;;;7366363;19;20025;-70
2022/11/18 02:40:15;;;;;;;1.30;0.60;;;8.30;50.80;;;;;;7361353;19;20411;-70
2022/11/18 02:42:49;;;;;;;2.25;0.50;;;8.30;50.70;;;;;;7361715;19;20011;-70
2022/11/18 02:45:24;;;;;;;1.27;0.40;;;8.30;51.00;;;;;;7365431;19;20010;-68
2022/11/18 02:47:55;;;;;;;2.63;0.70;;;8.30;50.90;;;;;;7386634;19;20011;-70
2022/11/18 02:50:27;;;;;;;3.00;0.40;;;8.30;51.60;;;;;;7358364;19;20013;-70
2022/11/18 02:53:01;;;;;;;2.05;0.50;;;8.30;51.30;;;;;;7360531;19;20354;-70
2022/11/18 02:55:34;;;;;;;1.98;0.28;;;8.30;50.70;;;;;;7364488;19;20017;-69
2022/11/18 02:58:06;;;;;;;3.05;0.70;;;8.30;51.10;;;;;;7363606;19;20007;-69
2022/11/18 03:00:39;;;;;;;2.10;0.63;;;8.30;50.40;;;;;;7360579;19;20573;-69
2022/11/18 03:03:27;;;;;;;0.80;0.50;;;8.30;49.90;;;;;;7360468;19;20025;-69
2022/11/18 03:06:07;;;;;;;0.82;0.40;;;8.20;50.30;;;;;;7387050;19;20014;-69
2022/11/18 03:08:40;;;;;;;2.22;0.60;;;8.20;51.20;;;;;;7361713;19;20003;-69
2022/11/18 03:11:17;;;;;;;5.97;0.60;;;8.20;51.70;;;;;;7358030;19;20011;-69
2022/11/18 03:14:03;;;;;;;1.77;0.73;;;8.20;52.60;;;;;;7363449;19;20070;-70
2022/11/18 03:16:40;;;;;;;3.70;1.02;;;8.10;52.90;;;;;;7364455;19;20017;-69
2022/11/18 03:19:20;;;;;;;1.63;0.63;;;8.00;54.00;;;;;;7363494;19;20006;-68
2022/11/18 03:22:01;;;;;;;0.70;0.60;;;8.00;54.60;;;;;;7356830;19;20006;-68
2022/11/18 03:24:34;;;;;;;2.50;0.88;;;8.00;55.30;;;;;;7363918;19;20018;-69
2022/11/18 03:27:18;;;;;;;1.43;0.60;;;7.90;54.80;;;;;;7384119;19;20078;-68
2022/11/18 03:29:56;;;;;;;1.50;0.90;;;8.00;56.10;;;;;;7361810;19;20017;-69
2022/11/18 03:32:31;;;;;;;2.03;1.20;;;8.00;56.80;;;;;;7357184;19;20028;-69
2022/11/18 03:35:04;;;;;;;0.82;0.70;;;8.00;56.90;;;;;;7364387;19;20405;-69
2022/11/18 03:37:36;;;;;;;2.75;0.65;;;8.00;57.30;;;;;;7362263;19;20042;-70
2022/11/18 03:40:13;;;;;;;1.98;0.50;;;7.90;57.40;;;;;;7361750;19;20018;-69
2022/11/18 03:42:46;;;;;;;1.13;0.47;;;7.90;56.70;;;;;;7357196;19;20048;-69
2022/11/18 03:45:21;;;;;;;1.23;0.40;;;7.90;57.00;;;;;;7364182;19;20009;-69
2022/11/18 03:47:59;;;;;;;0.68;0.28;;;7.90;57.30;;;;;;7383833;19;20015;-69
2022/11/18 03:50:33;;;;;;;0.77;0.30;;;7.90;56.00;;;;;;7359133;19;20069;-69
2022/11/18 03:53:05;;;;;;;1.95;0.40;;;7.90;56.90;;;;;;7358635;19;20014;-69
2022/11/18 03:55:40;;;;;;;1.48;0.50;;;7.90;55.50;;;;;;7361602;19;20015;-69
2022/11/18 03:58:17;;;;;;;1.73;0.52;;;7.90;56.20;;;;;;7363270;19;20299;-69
2022/11/18 04:00:51;;;;;;;4.15;0.88;;;7.80;54.30;;;;;;7359010;19;20032;-69
2022/11/18 04:03:24;;;;;;;1.95;0.60;;;7.80;53.60;;;;;;7359395;19;20074;-70
2022/11/18 04:06:00;;;;;;;1.45;0.30;;;7.80;53.80;;;;;;7382784;19;20369;-68
2022/11/18 04:08:38;;;;;;;0.68;0.40;;;7.80;53.80;;;;;;7365194;19;20014;-68
2022/11/18 04:12:01;;;;;;;2.58;0.50;;;7.70;54.30;;;;;;7364465;19;20021;-69
2022/11/18 04:14:05;;;;;;;1.33;0.63;;;7.70;53.70;;;;;;7370570;19;20022;-69
2022/11/18 04:16:41;;;;;;;1.60;0.60;;;7.80;54.30;;;;;;7368404;19;20022;-69
2022/11/18 04:19:14;;;;;;;1.10;0.65;;;7.80;54.10;;;;;;7369752;19;20031;-69
2022/11/18 04:21:43;;;;;;;2.67;0.50;;;7.80;54.30;;;;;;7362826;19;20357;-69
2022/11/18 04:24:13;;;;;;;2.95;0.70;;;7.80;54.40;;;;;;7370668;19;20010;-70
2022/11/18 04:26:43;;;;;;;1.55;0.60;;;7.80;54.60;;;;;;7389320;19;20355;-69
2022/11/18 04:29:13;;;;;;;4.10;0.70;;;7.80;55.00;;;;;;7367038;19;20006;-69
2022/11/18 04:31:43;;;;;;;0.80;0.40;;;7.80;54.70;;;;;;7359442;19;20470;-69
2022/11/18 04:34:16;;;;;;;2.08;0.52;;;7.80;55.00;;;;;;7369930;19;20779;-69
2022/11/18 04:36:45;;;;;;;0.80;0.50;;;7.80;54.40;;;;;;7366997;19;20010;-69
2022/11/18 04:39:16;;;;;;;0.70;0.38;;;7.80;54.60;;;;;;7367967;19;20025;-69
2022/11/18 04:41:59;;;;;;;0.73;0.30;;;7.80;54.80;;;;;;7383665;19;20013;-71
2022/11/18 04:44:31;;;;;;;1.65;0.82;;;7.80;53.50;;;;;;7369267;19;20455;-69
2022/11/18 04:47:03;;;;;;;1.42;0.80;;;7.70;53.50;;;;;;7366093;19;20086;-69
2022/11/18 04:49:36;;;;;;;1.77;0.50;;;7.80;54.10;;;;;;7368393;19;20360;-69
2022/11/18 04:52:07;;;;;;;2.35;0.50;;;7.70;52.70;;;;;;7359709;19;20042;-69
2022/11/18 04:54:37;;;;;;;2.97;0.55;;;7.60;52.50;;;;;;7370564;19;20014;-69
2022/11/18 04:57:07;;;;;;;2.65;0.93;;;7.70;53.30;;;;;;7387115;19;20025;-71
2022/11/18 04:59:37;;;;;;;1.73;0.50;;;7.70;52.90;;;;;;7389567;19;20508;-68
2022/11/18 05:02:07;;;;;;;0.50;0.30;;;7.70;52.50;;;;;;7357755;19;20566;-69
2022/11/18 05:04:39;;;;;;;1.55;0.40;;;7.70;51.60;;;;;;7369430;19;20609;-69
2022/11/18 05:07:09;;;;;;;0.95;0.38;;;7.60;51.20;;;;;;7366759;19;20478;-68
2022/11/18 05:09:39;;;;;;;2.55;0.40;;;7.50;50.10;;;;;;7366881;19;20346;-69
2022/11/18 05:14:55;;;;;;;0.90;0.47;;;7.50;49.80;;;;;;7391387;19;20021;-69
2022/11/18 05:17:26;;;;;;;2.75;0.50;;;7.60;50.90;;;;;;7364623;19;20093;-69
2022/11/18 05:19:58;;;;;;;0.88;0.32;;;7.60;51.10;;;;;;7363438;19;20010;-69
2022/11/18 05:22:28;;;;;;;4.88;0.70;;;7.60;51.20;;;;;;7361801;19;20024;-69
2022/11/18 05:24:58;;;;;;;1.90;0.40;;;7.60;52.00;;;;;;7369599;19;20002;-70
2022/11/18 05:27:28;;;;;;;0.93;0.47;;;7.60;51.50;;;;;;7365167;19;20004;-70
2022/11/18 05:29:58;;;;;;;1.65;0.40;;;7.60;50.50;;;;;;7385361;19;20485;-70
2022/11/18 05:32:27;;;;;;;2.50;0.52;;;7.60;50.70;;;;;;7359395;19;20010;-70
2022/11/18 05:35:00;;;;;;;0.88;0.40;;;7.60;50.70;;;;;;7368039;19;20418;-69
2022/11/18 05:37:30;;;;;;;2.05;0.43;;;7.50;49.90;;;;;;7365100;19;20007;-69
2022/11/18 05:39:59;;;;;;;3.08;0.43;;;7.50;49.60;;;;;;7363425;19;20656;-69
2022/11/18 05:45:12;;;;;;;0.60;0.32;;;7.60;49.30;;;;;;7367701;19;20340;-69
2022/11/18 05:50:26;;;;;;;2.83;0.65;;;7.60;49.40;;;;;;7361992;19;20014;-69
2022/11/18 05:52:56;;;;;;;2.22;0.47;;;7.50;49.00;;;;;;7362156;19;20014;-69
2022/11/18 05:55:30;;;;;;;1.08;0.60;;;7.50;49.30;;;;;;7367126;19;20007;-70
2022/11/18 05:58:00;;;;;;;0.82;0.60;;;7.50;49.50;;;;;;7364392;19;20018;-70
2022/11/18 06:00:31;;;;;;;1.30;0.60;;;7.50;50.10;;;;;;7360682;19;20019;-70
2022/11/18 06:03:02;;;;;;;1.70;0.60;;;7.60;50.30;;;;;;7384488;19;20030;-70
2022/11/18 06:05:35;;;;;;;2.40;0.57;;;7.50;50.40;;;;;;7367557;19;20009;-70
2022/11/18 06:08:04;;;;;;;4.20;0.93;;;7.50;49.50;;;;;;7365963;19;20479;-70
2022/11/18 06:10:40;;;;;;;0.95;0.45;;;7.60;50.10;;;;;;7360702;19;20010;-70
2022/11/18 06:13:13;;;;;;;1.85;0.50;;;7.60;49.90;;;;;;7358958;19;20040;-70
2022/11/18 06:15:45;;;;;;;2.45;0.70;;;7.60;49.50;;;;;;7366472;19;20435;-68
2022/11/18 06:18:20;;;;;;;0.65;0.65;;;7.60;49.70;;;;;;7360277;19;20007;-69
2022/11/18 06:20:54;;;;;;;6.80;3.30;;;7.60;49.40;;;;;;7382555;19;20026;-69
2022/11/18 06:23:24;;;;;;;1.98;0.65;;;7.60;49.70;;;;;;7362400;19;20003;-69
2022/11/18 06:25:55;;;;;;;1.98;0.57;;;7.50;48.40;;;;;;7366676;19;20019;-69
2022/11/18 06:28:25;;;;;;;1.00;0.60;;;7.50;47.80;;;;;;7362798;19;20506;-69
2022/11/18 06:30:55;;;;;;;1.02;0.50;;;7.50;46.30;;;;;;7361053;19;20371;-69
2022/11/18 06:33:25;;;;;;;0.85;0.40;;;7.50;45.80;;;;;;7359664;19;20018;-70
2022/11/18 06:35:57;;;;;;;0.50;0.40;;;7.60;44.90;;;;;;7387104;19;20024;-69
2022/11/18 06:38:27;;;;;;;1.25;0.43;;;7.60;44.20;;;;;;7363802;19;20495;-69
2022/11/18 06:41:00;;;;;;;0.93;0.50;;;7.60;43.40;;;;;;7360263;19;20002;-69
2022/11/18 06:43:54;;;;;;;1.23;0.82;;;7.60;44.40;;;;;;7359317;19;20443;-69
2022/11/18 06:49:06;;;;;;;2.10;0.70;;;7.60;44.70;;;;;;7363989;19;20017;-69
2022/11/18 06:51:39;;;;;;;2.72;0.88;;;7.60;44.60;;;;;;7355475;19;20010;-69
2022/11/18 06:54:09;;;;;;;1.38;0.70;;;7.60;46.10;;;;;;7367141;19;20022;-70
2022/11/18 06:56:39;;;;;;;6.30;1.25;;;7.60;46.80;;;;;;7385006;19;20011;-69
2022/11/18 06:59:09;;;;;;;3.40;0.80;;;7.70;47.40;;;;;;7362833;19;20147;-70
2022/11/18 07:01:41;;;;;;;1.95;1.17;;;7.60;46.80;;;;;;7357015;19;21416;-70
2022/11/18 07:04:11;;;;;;;1.75;0.90;;;7.60;47.10;;;;;;7364956;19;20011;-68
2022/11/18 07:06:43;;;;;;;1.00;0.80;;;7.60;47.50;;;;;;7365049;19;20027;-69
2022/11/18 07:09:13;;;;;;;2.50;0.80;;;7.60;47.80;;;;;;7363472;19;20030;-69
2022/11/18 07:11:43;;;;;;;2.00;1.15;;;7.60;47.10;;;;;;7378131;19;20010;-69
2022/11/18 07:14:14;;;;;;;1.83;0.80;;;7.70;48.10;;;;;;7363282;19;20010;-69
2022/11/18 07:16:44;;;;;;;1.50;0.98;;;7.60;46.40;;;;;;7362306;19;20125;-69
2022/11/18 07:19:15;;;;;;;2.05;0.60;;;7.60;45.00;;;;;;7362892;19;20010;-68
2022/11/18 07:21:48;;;;;;;1.17;0.70;;;7.60;44.40;;;;;;7355832;19;20078;-69
2022/11/18 07:24:18;;;;;;;2.45;1.05;;;7.60;44.40;;;;;;7364040;19;20018;-69
2022/11/18 07:26:48;;;;;;;1.42;0.70;;;7.60;44.30;;;;;;7383907;19;20007;-69
2022/11/18 07:29:18;;;;;;;1.63;0.60;;;7.60;44.50;;;;;;7361325;19;20360;-69
2022/11/18 07:31:48;;;;;;;0.90;0.52;;;7.60;44.50;;;;;;7356250;19;19999;-69
2022/11/18 07:34:18;;;;;;;1.13;0.70;;;7.60;44.70;;;;;;7363350;19;20022;-69
2022/11/18 07:36:50;;;;;;;1.65;1.00;;;7.60;43.50;;;;;;7362800;19;20074;-69
2022/11/18 07:39:20;;;;;;;2.53;0.93;;;7.60;43.80;;;;;;7360354;19;20093;-69
2022/11/18 07:41:50;;;;;;;2.75;0.80;;;7.60;44.00;;;;;;7374717;19;20026;-69
2022/11/18 07:44:20;;;;;;;1.08;0.63;;;7.60;44.80;;;;;;7361502;19;20011;-69
2022/11/18 07:46:50;;;;;;;1.83;1.00;;;7.70;46.20;;;;;;7360589;19;20007;-68
2022/11/18 07:49:20;;;;;;;1.77;0.80;;;7.70;46.60;;;;;;7359273;19;20007;-70
2022/11/18 07:51:53;;;;;;;1.77;0.75;;;7.60;46.30;;;;;;7352976;19;20473;-68
2022/11/18 07:54:23;;;;;;;3.47;2.10;;;7.70;46.70;;;;;;7361966;19;20086;-69
2022/11/18 07:56:53;;;;;;;1.40;1.20;;;7.60;47.00;;;;;;7381543;19;20022;-69
2022/11/18 07:59:22;;;;;;;1.85;0.70;;;7.70;47.80;;;;;;7360363;19;20085;-69
2022/11/18 08:01:52;;;;;;;1.77;0.95;;;7.60;45.40;;;;;;7353505;19;20015;-70
2022/11/18 08:04:23;;;;;;;2.13;0.93;;;7.70;47.50;;;;;;7357459;19;20077;-69
2022/11/18 08:06:55;;;;;;;4.70;1.55;;;7.70;47.20;;;;;;7355052;19;20010;-68
2022/11/18 08:09:25;;;;;;;2.47;1.23;;;7.70;46.80;;;;;;7357731;19;20010;-69
2022/11/18 08:11:55;;;;;;;3.15;1.20;;;7.80;47.40;;;;;;7370138;19;20015;-69
2022/11/18 08:14:25;;;;;;;3.50;1.02;;;7.80;46.70;;;;;;7358991;19;20017;-69
2022/11/18 08:16:55;;;;;;;1.63;1.40;;;7.80;47.50;;;;;;7359174;19;20007;-70
2022/11/18 08:19:25;;;;;;;2.50;1.40;;;7.80;46.80;;;;;;7358965;19;20014;-70
2022/11/18 08:21:57;;;;;;;3.00;1.90;;;7.80;47.70;;;;;;7352587;19;20019;-69
2022/11/18 08:24:27;;;;;;;1.50;1.20;;;7.90;48.50;;;;;;7360800;19;20042;-70
2022/11/18 08:26:57;;;;;;;2.15;1.58;;;7.80;47.00;;;;;;7379013;19;20023;-69
2022/11/18 08:29:27;;;;;;;3.00;1.80;;;7.90;48.20;;;;;;7359438;19;20487;-69
2022/11/18 08:31:57;;;;;;;2.42;2.05;;;7.90;48.20;;;;;;7352565;19;20470;-69
2022/11/18 08:34:27;;;;;;;2.85;1.92;;;8.00;48.70;;;;;;7360184;19;20466;-69
2022/11/18 08:36:59;;;;;;;2.60;1.73;;;8.00;48.40;;;;;;7358622;19;20331;-70
2022/11/18 08:39:29;;;;;;;2.28;1.35;;;8.00;48.70;;;;;;7358243;19;20020;-69
2022/11/18 08:42:00;;;;;;;2.78;1.85;;;7.80;47.60;;;;;;7373077;19;20623;-69
2022/11/18 08:44:32;;;;;;;2.30;1.10;;;7.90;48.70;;;;;;7361603;19;20517;-69
2022/11/18 08:47:02;;;;;;;3.30;1.40;;;8.00;48.80;;;;;;7356182;19;20045;-68
2022/11/18 08:49:32;;;;;;;1.83;1.08;;;7.90;47.90;;;;;;7356813;19;20021;-69
2022/11/18 08:52:04;;;;;;;1.95;1.20;;;7.80;48.00;;;;;;7350931;19;20007;-69
2022/11/18 08:54:34;;;;;;;3.38;1.48;;;7.80;49.00;;;;;;7360105;19;20019;-69
2022/11/18 08:57:04;;;;;;;3.33;1.45;;;7.90;48.70;;;;;;7385996;19;20069;-69
2022/11/18 08:59:34;;;;;;;3.17;1.38;;;7.80;48.70;;;;;;7364759;19;20018;-70
2022/11/18 09:02:04;;;;;;;3.88;1.67;;;7.90;49.50;;;;;;7357191;19;20014;-69
2022/11/18 09:04:34;;;;;;;3.05;1.90;;;8.00;50.90;;;;;;7368890;19;20014;-68
2022/11/18 09:07:06;;;;;;;2.53;1.40;;;8.10;51.50;;;;;;7366196;19;20759;-69
2022/11/18 09:09:36;;;;;;;2.70;1.52;;;8.00;50.00;;;;;;7365802;19;20034;-69
2022/11/18 09:12:08;;;;;;;3.05;1.67;;;8.00;51.00;;;;;;7380969;19;20020;-68
2022/11/18 09:14:37;;;;;;;3.20;1.60;;;8.10;51.20;;;;;;7367445;19;20014;-68
2022/11/18 09:17:27;;;;;;;2.60;1.70;;;8.20;52.40;;;;;;7364217;19;20753;-68
2022/11/18 09:19:57;;;;;;;2.95;1.77;;;8.20;51.50;;;;;;7362936;19;20872;-68
2022/11/18 09:22:29;;;;;;;4.25;1.98;;;8.10;49.50;;;;;;7361775;19;20006;-68
2022/11/18 09:24:59;;;;;;;3.45;1.63;;;8.10;50.00;;;;;;7369170;19;20022;-69
2022/11/18 09:27:29;;;;;;;5.15;1.98;;;8.10;48.90;;;;;;7365021;19;20078;-69
2022/11/18 09:29:59;;;;;;;3.65;2.10;;;8.20;50.80;;;;;;7386138;19;20010;-68
2022/11/18 09:32:29;;;;;;;3.25;1.83;;;8.20;50.50;;;;;;7356612;19;20003;-68
2022/11/18 09:34:59;;;;;;;2.80;1.50;;;8.30;50.70;;;;;;7366720;19;20077;-69
2022/11/18 09:37:31;;;;;;;3.95;1.83;;;8.20;50.00;;;;;;7364852;19;20006;-68
2022/11/18 09:40:01;;;;;;;1.83;1.35;;;8.30;51.80;;;;;;7361565;19;20014;-68
2022/11/18 09:42:47;;;;;;;3.88;1.48;;;8.30;50.30;;;;;;7359796;19;20119;-68
2022/11/18 09:45:25;;;;;;;2.95;1.80;;;8.30;50.60;;;;;;7367397;19;20404;-68
2022/11/18 09:47:59;;;;;;;2.60;1.38;;;8.30;51.10;;;;;;7386018;19;20020;-68
2022/11/18 09:50:29;;;;;;;2.90;1.40;;;8.20;51.20;;;;;;7363035;19;20331;-67
2022/11/18 09:53:24;;;;;;;3.85;1.73;;;8.20;51.40;;;;;;7361740;19;20651;-68
2022/11/18 09:55:55;;;;;;;3.70;1.60;;;8.20;53.00;;;;;;7365765;19;20014;-68
2022/11/18 09:58:34;;;;;;;2.97;1.92;;;8.30;53.20;;;;;;7363904;19;20032;-68
2022/11/18 10:01:04;;;;;;;2.22;1.70;;;8.40;53.70;;;;;;7361759;19;20049;-68
2022/11/18 10:03:35;;;;;;;1.67;1.20;;;8.40;53.40;;;;;;7361510;19;20084;-68
2022/11/18 10:06:14;;;;;;;2.70;1.75;;;8.30;52.50;;;;;;7388476;19;20007;-69
2022/11/18 10:09:07;;;;;;;3.45;2.00;;;8.20;53.00;;;;;;7363676;19;20069;-68
2022/11/18 10:11:39;;;;;;;;;;;8.40;55.40;;;;;;7358454;19;20040;-68
2022/11/18 10:14:27;;;;;;;2.97;2.10;;;8.40;54.90;;;;;;7366379;19;19918;-68
2022/11/18 10:17:05;;;;;;;3.50;2.47;;;8.50;55.20;;;;;;7363908;19;20014;-67
2022/11/18 10:19:41;;;;;;;2.92;1.75;;;8.60;55.70;;;;;;7364839;19;20006;-68
2022/11/18 10:22:23;;;;;;;5.07;2.97;;;8.60;55.70;;;;;;7357097;19;20012;-68
2022/11/18 10:24:59;;;;;;;3.83;2.50;;;8.70;55.60;;;;;;7365604;19;20015;-68
2022/11/18 10:27:39;;;;;;;4.47;2.55;;;8.80;55.60;;;;;;7364506;19;20025;-68
2022/11/18 10:30:14;;;;;;;3.03;2.53;;;8.90;54.80;;;;;;7364280;19;20021;-68
2022/11/18 10:33:01;;;;;;;2.70;2.38;;;8.90;53.50;;;;;;7379905;19;20014;-68
2022/11/18 10:35:33;;;;;;;5.38;4.07;;;9.10;52.40;;;;;;7364416;19;20022;-68
2022/11/18 10:38:06;;;;;;;3.38;2.53;;;9.10;52.10;;;;;;7364067;19;20074;-69
2022/11/18 10:40:48;;;;;;;4.10;2.47;;;9.00;49.70;;;;;;7361131;19;20032;-68
2022/11/18 10:43:50;;;;;;;5.53;3.00;;;9.10;51.20;;;;;;7361183;19;20006;-68
2022/11/18 10:46:26;;;;;;;3.72;2.50;;;9.00;49.00;;;;;;7365387;19;20079;-67
2022/11/18 10:49:17;;;;;;;2.90;2.33;;;9.20;49.50;;;;;;7363494;19;20006;-70
2022/11/18 10:51:49;;;;;;;5.80;2.45;;;9.30;46.70;;;;;;7358322;19;20081;-69
2022/11/18 10:54:22;;;;;;;5.07;2.28;;;9.30;45.00;;;;;;7363648;19;20021;-69
2022/11/18 10:56:54;;;;;;;2.58;1.90;;;9.40;44.00;;;;;;7385397;19;20015;-68
2022/11/18 10:59:34;;;;;;;3.05;2.00;;;9.30;38.70;;;;;;7361091;19;20450;-68
2022/11/18 11:02:17;;;;;;;3.53;2.03;;;9.30;41.60;;;;;;7354222;19;20003;-68
2022/11/18 11:04:47;;;;;;;6.25;2.10;;;9.10;39.90;;;;;;7364179;19;20015;-67
2022/11/18 11:07:24;;;;;;;3.50;1.73;;;9.30;43.60;;;;;;7363750;19;20030;-66
2022/11/18 11:10:02;;;;;;;2.85;1.92;;;9.20;41.80;;;;;;7359009;19;20030;-68
2022/11/18 11:12:35;;;;;;;5.93;2.20;;;9.20;41.50;;;;;;7357423;19;20020;-68
2022/11/18 11:15:12;;;;;;;4.47;2.30;;;9.20;43.30;;;;;;7383662;19;20478;-68
2022/11/18 11:18:40;;;;;;;4.97;2.58;;;9.20;43.60;;;;;;7357502;19;20620;-68
2022/11/18 11:20:40;;;;;;;5.60;2.35;;;9.10;41.40;;;;;;7361514;19;20015;-68
2022/11/18 11:23:12;;;;;;;2.85;2.22;;;9.10;43.10;;;;;;7357851;19;20018;-68
2022/11/18 11:25:50;;;;;;;4.72;2.40;;;9.10;42.30;;;;;;7363224;19;20022;-68
2022/11/18 11:28:41;;;;;;;;;;;9.20;44.40;;;;;;7361933;19;20011;-68
2022/11/18 11:31:22;;;;;;;3.58;2.70;;;9.20;43.30;;;;;;7360813;19;19910;-67
2022/11/18 11:33:58;;;;;;;1.90;1.70;;;9.30;41.60;;;;;;7362959;19;20017;-68
2022/11/18 11:36:38;;;;;;;2.97;1.58;;;9.30;40.70;;;;;;7361874;19;20047;-68
2022/11/18 11:39:29;;;;;;;2.70;1.65;;;9.40;39.40;;;;;;7367585;19;20015;-69
2022/11/18 11:42:10;;;;;;;3.40;1.40;;;9.40;33.20;;;;;;7379149;19;20010;-68
2022/11/18 11:44:54;;;;;;;5.55;1.50;;;9.50;34.60;;;;;;7364877;19;20030;-68
2022/11/18 11:47:48;;;;;;;3.17;1.70;;;9.70;35.80;;;;;;7359059;19;20058;-68
2022/11/18 11:50:25;;;;;;;6.57;1.70;;;9.80;33.60;;;;;;7362173;19;20014;-67
2022/11/18 11:53:15;;;;;;;5.60;1.90;;;9.90;32.60;;;;;;7353929;19;20033;-68
2022/11/18 11:55:57;;;;;;;2.25;1.50;;;9.90;30.90;;;;;;7362641;19;20086;-69
2022/11/18 11:58:41;;;;;;;2.30;1.60;;;9.80;27.90;;;;;;7360266;19;20010;-68
2022/11/18 12:01:21;;;;;;;5.68;1.70;;;9.80;25.70;;;;;;7358732;19;20119;-68
2022/11/18 12:04:02;;;;;;;2.65;1.70;;;9.80;25.60;;;;;;7362793;19;20006;-69
2022/11/18 12:06:33;;;;;;;2.75;1.10;;;9.80;26.20;;;;;;7360526;19;20015;-69
2022/11/18 12:09:08;;;;;;;3.85;1.40;;;9.80;22.00;;;;;;7380767;19;20021;-69
2022/11/18 12:11:45;;;;;;;3.28;1.48;;;9.80;23.20;;;;;;7355082;19;20033;-68
2022/11/18 12:14:27;;;;;;;2.38;1.40;;;9.80;22.70;;;;;;7361894;19;20018;-69
2022/11/18 12:17:06;;;;;;;2.22;1.50;;;9.80;25.00;;;;;;7360533;19;20018;-69
2022/11/18 12:19:41;;;;;;;6.68;1.98;;;9.90;26.70;;;;;;7358725;19;20406;-68
2022/11/18 12:22:12;;;;;;;3.45;1.08;;;10.00;23.00;;;;;;7352700;19;20620;-67
2022/11/18 12:24:43;;;;;;;1.83;1.17;;;9.70;21.70;;;;;;7361469;19;20499;-70
2022/11/18 12:27:16;;;;;;;3.22;1.48;;;9.90;24.60;;;;;;7361463;19;20025;-67
2022/11/18 12:29:58;;;;;;;3.05;1.10;;;9.80;21.00;;;;;;7385460;19;20444;-68
2022/11/18 12:32:41;;;;;;;4.05;1.48;;;9.80;21.50;;;;;;7356594;19;20050;-67
2022/11/18 12:35:30;;;;;;;1.85;0.90;;;9.80;20.10;;;;;;7368029;19;20087;-68
2022/11/18 12:38:03;;;;;;;4.80;1.23;;;9.80;20.50;;;;;;7366515;19;20023;-69
2022/11/18 12:40:42;;;;;;;2.70;1.65;;;9.70;19.90;;;;;;7367309;19;20399;-68
2022/11/18 12:44:03;;;;;;;3.85;2.17;;;9.90;22.80;;;;;;7360614;19;20078;-68
2022/11/18 12:46:50;;;;;;;2.58;1.35;;;9.90;20.10;;;;;;7369333;19;20028;-67
2022/11/18 12:49:50;;;;;;;4.30;2.00;;;10.00;17.20;;;;;;7366895;19;20007;-68
2022/11/18 12:52:54;;;;;;;6.10;2.05;;;9.80;20.20;;;;;;7361000;19;20007;-67
2022/11/18 12:55:34;;;;;;;5.95;2.00;;;9.80;20.30;;;;;;7365632;19;20663;-68
2022/11/18 12:58:04;;;;;;;3.78;1.98;;;9.80;21.10;;;;;;7364496;19;20010;-68
2022/11/18 13:00:51;;;;;;;4.90;1.90;;;9.80;21.20;;;;;;7359680;19;20022;-67
2022/11/18 13:03:27;;;;;;;6.45;2.42;;;9.80;20.70;;;;;;7357553;19;20030;-68
2022/11/18 13:06:14;;;;;;;6.93;2.58;;;9.80;21.10;;;;;;7390794;19;20015;-67
2022/11/18 13:08:52;;;;;;;3.88;2.70;;;9.50;17.90;;;;;;7359631;19;20468;-67
2022/11/18 13:20:04;;;;;;;3.78;1.60;;;9.60;18.50;;;;;;7354228;19;20489;-66
2022/11/18 13:25:28;;;;;;;5.55;2.20;;;9.60;19.20;;;;;;7363136;19;20018;-67
2022/11/18 13:28:08;;;;;;;4.95;1.60;;;9.50;17.80;;;;;;7362926;19;20010;-67
2022/11/18 13:33:37;;;;;;;4.15;1.70;;;9.60;18.60;;;;;;7359617;19;20014;-67
2022/11/18 13:36:18;;;;;;;4.30;1.67;;;9.60;19.00;;;;;;7383638;19;20019;-67
2022/11/18 13:38:57;;;;;;;2.53;1.65;;;9.70;19.10;;;;;;7383951;19;20014;-67
2022/11/18 13:41:34;;;;;;;5.60;1.85;;;9.70;20.60;;;;;;7357965;19;20014;-67
2022/11/18 13:44:17;;;;;;;4.65;1.80;;;9.80;19.80;;;;;;7364973;19;20391;-67
2022/11/18 13:46:49;;;;;;;6.40;2.78;;;9.80;19.20;;;;;;7366657;19;20090;-66
2022/11/18 13:49:23;;;;;;;5.97;2.53;;;9.90;21.10;;;;;;7364935;19;20569;-66
2022/11/18 13:51:54;;;;;;;5.03;2.20;;;10.00;22.00;;;;;;7358768;19;20030;-66
2022/11/18 13:54:26;;;;;;;2.72;1.67;;;10.00;16.60;;;;;;7363284;19;20011;-67
2022/11/18 13:56:59;;;;;;;4.15;1.98;;;10.20;16.20;;;;;;7386341;19;20540;-68
2022/11/18 13:59:29;;;;;;;4.00;1.58;;;10.30;16.70;;;;;;7363412;19;20033;-67
2022/11/18 14:02:01;;;;;;;4.80;1.65;;;10.00;12.20;;;;;;7358269;19;20006;-67
2022/11/18 14:04:34;;;;;;;4.47;3.08;;;10.20;15.20;;;;;;7367131;19;20014;-67
2022/11/18 14:07:24;;;;;;;3.33;1.45;;;10.10;11.90;;;;;;7363514;19;20011;-67
2022/11/18 14:09:55;;;;;;;1.88;1.55;;;9.90;12.10;;;;;;7360854;19;20011;-66